Time;durP1;ratioP1;P1;durP2;ratioP2;P2;SDS_P1;SDS_P2;PMS_P1;PMS_P2;Temp;Humidity;BMP_temperature;BMP_pressure;BME280_temperature;BME280_humidity;BME280_pressure;Samples;Min_cycle;Max_cycle;Signal;HPM_P1;HPM_P2
2022/10/27 00:00:52;;;;;;;9.15;4.20;;;14.50;99.90;;;;;;4992504;28;37737;-76
2022/10/27 00:03:18;;;;;;;13.35;4.60;;;14.40;99.90;;;;;;4994273;28;40363;-76
2022/10/27 00:05:46;;;;;;;8.52;5.22;;;14.40;99.90;;;;;;4975807;28;38682;-75
2022/10/27 00:08:18;;;;;;;15.80;5.47;;;14.30;99.90;;;;;;4972236;28;37397;-75
2022/10/27 00:10:54;;;;;;;8.82;4.38;;;14.30;99.90;;;;;;4982848;28;36778;-75
2022/10/27 00:13:20;;;;;;;7.40;4.05;;;14.20;99.90;;;;;;4987612;28;38260;-75
2022/10/27 00:15:55;;;;;;;10.80;5.63;;;14.20;99.90;;;;;;4974347;28;40403;-78
2022/10/27 00:18:21;;;;;;;11.88;6.45;;;14.20;99.90;;;;;;4998873;28;37540;-75
2022/10/27 00:21:16;;;;;;;18.50;7.57;;;14.20;99.90;;;;;;4995790;28;37186;-77
2022/10/27 00:23:42;;;;;;;15.32;7.32;;;14.20;99.90;;;;;;4994290;28;48550;-78
2022/10/27 00:26:11;;;;;;;19.38;7.18;;;14.20;99.90;;;;;;4996946;28;39387;-77
2022/10/27 00:28:37;;;;;;;13.93;6.97;;;14.10;99.90;;;;;;4981599;28;38288;-77
2022/10/27 00:31:17;;;;;;;15.02;8.30;;;14.10;99.90;;;;;;4998088;28;37234;-77
2022/10/27 00:33:44;;;;;;;14.75;8.60;;;14.20;99.90;;;;;;4981159;28;47000;-77
2022/10/27 00:36:15;;;;;;;18.90;9.20;;;14.20;99.90;;;;;;4980728;28;37163;-77
2022/10/27 00:38:41;;;;;;;16.70;9.18;;;14.40;99.90;;;;;;4997222;28;37051;-76
2022/10/27 00:41:19;;;;;;;16.38;8.63;;;14.40;99.90;;;;;;4985150;28;39295;-76
2022/10/27 00:43:45;;;;;;;14.98;7.97;;;14.30;99.90;;;;;;5000879;28;39105;-77
2022/10/27 00:46:18;;;;;;;12.82;7.25;;;14.30;99.90;;;;;;4997018;28;38986;-76
2022/10/27 00:48:45;;;;;;;13.48;8.57;;;14.10;99.90;;;;;;4979457;28;37419;-76
2022/10/27 00:51:14;;;;;;;15.73;8.35;;;14.10;99.90;;;;;;4984502;28;36040;-76
2022/10/27 00:53:41;;;;;;;16.20;9.00;;;14.00;99.90;;;;;;4996262;28;38853;-77
2022/10/27 00:56:08;;;;;;;12.40;8.30;;;13.90;99.90;;;;;;4997402;28;37733;-76
2022/10/27 00:58:34;;;;;;;13.60;7.68;;;13.80;99.90;;;;;;4977983;28;37342;-76
2022/10/27 01:03:37;;;;;;;14.80;8.23;;;13.70;99.90;;;;;;5012440;23;20047;-87
2022/10/27 01:06:04;;;;;;;12.35;7.47;;;13.60;99.90;;;;;;4977948;28;38902;-85
2022/10/27 01:08:31;;;;;;;14.02;7.82;;;13.60;99.90;;;;;;4982195;28;46562;-87
2022/10/27 01:10:57;;;;;;;12.18;7.57;;;13.60;99.90;;;;;;4968604;28;36261;-84
2022/10/27 01:13:24;;;;;;;13.65;7.45;;;13.60;99.90;;;;;;4964723;28;39096;-87
2022/10/27 01:16:07;;;;;;;10.57;6.82;;;13.70;99.90;;;;;;4966779;28;39175;-84
2022/10/27 01:18:52;;;;;;;;;;;13.70;99.90;;;;;;4970258;28;47031;-87
2022/10/27 01:21:36;;;;;;;11.55;7.85;;;13.70;99.90;;;;;;4981678;28;36815;-87
2022/10/27 01:24:27;;;;;;;15.75;9.05;;;13.80;99.90;;;;;;4980343;28;37470;-85
2022/10/27 01:27:00;;;;;;;15.68;7.53;;;13.70;99.90;;;;;;4979942;28;37660;-86
2022/10/27 01:29:37;;;;;;;13.70;7.55;;;13.70;99.90;;;;;;4981836;28;41023;-88
2022/10/27 01:32:14;;;;;;;9.95;7.35;;;13.70;99.90;;;;;;4979693;28;37016;-85
2022/10/27 01:35:11;;;;;;;13.50;8.57;;;13.70;99.90;;;;;;4967486;28;38507;-86
2022/10/27 01:38:04;;;;;;;15.52;8.77;;;13.60;99.90;;;;;;4954115;28;47612;-86
2022/10/27 01:40:43;;;;;;;21.15;10.27;;;13.70;99.90;;;;;;4971530;28;47107;-86
2022/10/27 01:43:14;;;;;;;16.10;9.68;;;13.70;99.90;;;;;;4971384;28;36028;-86
2022/10/27 01:45:41;;;;;;;25.80;10.50;;;13.70;99.90;;;;;;4986033;28;37415;-88
2022/10/27 01:48:09;;;;;;;15.75;10.13;;;13.70;99.90;;;;;;4985593;28;38653;-85
2022/10/27 01:50:37;;;;;;;15.82;8.90;;;13.70;99.90;;;;;;4984644;28;37582;-87
2022/10/27 01:53:04;;;;;;;16.92;9.30;;;13.70;99.90;;;;;;4970983;28;36585;-87
2022/10/27 01:55:38;;;;;;;14.15;8.60;;;13.70;99.90;;;;;;4982506;28;40229;-86
2022/10/27 01:58:10;;;;;;;18.88;9.15;;;13.70;99.90;;;;;;4969530;28;38763;-86
2022/10/27 02:00:55;;;;;;;12.75;8.02;;;13.60;99.90;;;;;;4985268;28;38481;-86
2022/10/27 02:03:31;;;;;;;10.80;6.78;;;13.60;99.90;;;;;;4968608;28;38147;-88
2022/10/27 02:06:14;;;;;;;18.60;11.07;;;13.70;99.90;;;;;;4987153;28;38437;-87
2022/10/27 02:09:08;;;;;;;14.85;8.30;;;13.80;99.90;;;;;;4967134;28;46907;-85
2022/10/27 02:11:37;;;;;;;19.15;9.35;;;13.90;99.90;;;;;;4964192;28;47386;-87
2022/10/27 02:14:05;;;;;;;10.63;7.57;;;13.90;99.90;;;;;;4988657;28;37268;-86
2022/10/27 02:16:37;;;;;;;17.48;6.93;;;14.00;99.90;;;;;;4967570;28;38576;-84
2022/10/27 02:19:12;;;;;;;;;;;14.10;99.90;;;;;;4984954;28;39687;-84
2022/10/27 02:21:40;;;;;;;20.73;9.40;;;14.10;99.90;;;;;;4968817;28;37757;-86
2022/10/27 02:24:07;;;;;;;15.05;8.00;;;14.10;99.90;;;;;;4968207;28;35473;-81
2022/10/27 02:27:05;;;;;;;24.10;7.70;;;14.10;99.90;;;;;;4981838;28;39668;-81
2022/10/27 02:29:36;;;;;;;14.48;6.30;;;14.10;99.90;;;;;;4923989;28;48845;-84
2022/10/27 02:32:06;;;;;;;21.10;8.90;;;14.10;99.90;;;;;;4962967;28;38643;-82
2022/10/27 02:34:34;;;;;;;10.00;7.05;;;14.10;99.90;;;;;;4969896;28;36117;-85
2022/10/27 02:37:03;;;;;;;13.07;6.10;;;14.10;99.90;;;;;;4983717;28;39266;-87
2022/10/27 02:39:29;;;;;;;16.13;7.43;;;14.10;99.90;;;;;;4965941;28;47777;-87
2022/10/27 02:41:55;;;;;;;18.98;7.40;;;14.10;99.90;;;;;;4985077;28;39513;-84
2022/10/27 02:44:21;;;;;;;11.93;5.15;;;14.10;99.90;;;;;;4969958;28;37857;-87
2022/10/27 02:46:47;;;;;;;7.72;5.25;;;14.10;99.90;;;;;;4965421;28;37724;-85
2022/10/27 02:49:13;;;;;;;17.35;6.03;;;14.10;99.90;;;;;;4960694;28;38283;-86
2022/10/27 02:51:39;;;;;;;14.48;6.25;;;14.10;99.90;;;;;;4961991;28;36968;-85
2022/10/27 02:54:05;;;;;;;12.63;6.47;;;14.10;99.90;;;;;;4978582;28;37252;-86
2022/10/27 02:56:31;;;;;;;10.73;4.95;;;14.20;99.90;;;;;;4964470;28;38466;-84
2022/10/27 02:58:58;;;;;;;15.05;4.80;;;14.10;99.90;;;;;;4982717;28;38807;-86
2022/10/27 03:01:24;;;;;;;16.02;6.10;;;14.10;99.90;;;;;;4968661;28;39741;-85
2022/10/27 03:03:50;;;;;;;13.18;5.53;;;14.10;99.90;;;;;;4963826;28;36193;-85
2022/10/27 03:06:16;;;;;;;11.38;5.05;;;14.10;99.90;;;;;;4966696;28;37640;-85
2022/10/27 03:08:42;;;;;;;11.93;5.15;;;14.20;99.90;;;;;;4985407;28;37972;-86
2022/10/27 03:11:08;;;;;;;10.55;5.35;;;14.10;99.90;;;;;;4966972;28;37204;-88
2022/10/27 03:13:34;;;;;;;12.65;5.75;;;14.10;99.90;;;;;;4982936;28;37079;-85
2022/10/27 03:16:01;;;;;;;14.65;5.50;;;14.10;99.90;;;;;;4971352;28;38412;-85
2022/10/27 03:18:27;;;;;;;13.38;5.43;;;14.00;99.90;;;;;;4966431;28;38566;-88
2022/10/27 03:20:53;;;;;;;14.77;6.57;;;14.00;99.90;;;;;;4974039;28;38480;-84
2022/10/27 03:23:19;;;;;;;18.60;6.57;;;14.10;99.90;;;;;;4972402;28;36264;-86
2022/10/27 03:25:45;;;;;;;18.00;5.82;;;14.00;99.90;;;;;;4991722;28;39164;-87
2022/10/27 03:28:11;;;;;;;13.10;6.05;;;14.00;99.90;;;;;;4966934;28;38076;-85
2022/10/27 03:30:37;;;;;;;9.88;5.05;;;14.10;99.90;;;;;;4986164;28;38726;-86
2022/10/27 03:33:04;;;;;;;9.68;4.95;;;14.10;99.90;;;;;;4966286;28;36172;-86
2022/10/27 03:35:31;;;;;;;15.23;6.20;;;14.00;99.90;;;;;;4976301;28;38393;-86
2022/10/27 03:38:01;;;;;;;7.22;4.57;;;14.10;99.90;;;;;;4989876;28;37563;-88
2022/10/27 03:40:28;;;;;;;9.70;4.40;;;14.00;99.90;;;;;;4989480;28;38729;-89
2022/10/27 03:42:57;;;;;;;15.52;6.60;;;14.00;99.90;;;;;;4975793;28;36207;-85
2022/10/27 03:45:25;;;;;;;12.50;4.90;;;13.90;99.90;;;;;;4973705;28;39346;-85
2022/10/27 03:48:02;;;;;;;12.75;5.50;;;13.90;99.90;;;;;;4977989;28;37854;-86
2022/10/27 03:50:29;;;;;;;14.18;5.68;;;13.90;99.90;;;;;;4969470;28;47161;-86
2022/10/27 03:52:55;;;;;;;10.73;5.05;;;14.00;99.90;;;;;;4976396;28;38378;-88
2022/10/27 03:55:22;;;;;;;12.18;4.80;;;14.10;99.90;;;;;;4978266;28;37377;-86
2022/10/27 03:57:48;;;;;;;11.55;5.13;;;14.10;99.90;;;;;;4970695;28;38671;-85
2022/10/27 04:00:15;;;;;;;13.88;6.07;;;14.20;99.90;;;;;;4971642;28;38351;-85
2022/10/27 04:02:41;;;;;;;9.00;4.45;;;14.20;99.90;;;;;;4969940;28;39164;-88
2022/10/27 04:05:08;;;;;;;12.45;5.55;;;14.20;99.90;;;;;;4957894;28;37626;-85
2022/10/27 04:07:34;;;;;;;16.95;6.22;;;14.20;99.90;;;;;;4952978;28;38830;-86
2022/10/27 04:10:00;;;;;;;12.35;5.45;;;14.30;99.90;;;;;;4955632;28;38432;-86
2022/10/27 04:12:26;;;;;;;13.43;5.38;;;14.30;99.90;;;;;;4969198;28;38625;-87
2022/10/27 04:14:52;;;;;;;13.20;5.63;;;14.30;99.90;;;;;;4957435;28;37498;-86
2022/10/27 04:17:19;;;;;;;10.82;4.90;;;14.30;99.90;;;;;;4955832;28;38837;-83
2022/10/27 04:19:45;;;;;;;10.35;4.22;;;14.30;99.90;;;;;;4972610;28;38394;-89
2022/10/27 04:22:11;;;;;;;11.98;4.38;;;14.40;99.90;;;;;;4949568;28;36343;-85
2022/10/27 04:24:39;;;;;;;9.65;4.38;;;14.40;99.90;;;;;;4953386;28;38797;-87
2022/10/27 04:27:06;;;;;;;11.00;4.93;;;14.50;99.90;;;;;;4952481;28;35591;-88
2022/10/27 04:29:32;;;;;;;16.27;5.35;;;14.50;99.90;;;;;;4959580;28;38246;-85
2022/10/27 04:31:58;;;;;;;10.32;4.30;;;14.50;99.90;;;;;;4948062;28;36171;-88
2022/10/27 04:34:25;;;;;;;12.13;5.18;;;14.50;99.90;;;;;;4962184;28;37973;-83
2022/10/27 04:36:51;;;;;;;13.40;5.30;;;14.60;99.90;;;;;;4944438;28;38805;-86
2022/10/27 04:39:17;;;;;;;18.50;5.93;;;14.60;99.90;;;;;;4950293;28;37961;-87
2022/10/27 04:41:44;;;;;;;9.88;5.15;;;14.60;99.90;;;;;;4951424;28;36898;-86
2022/10/27 04:44:10;;;;;;;10.80;4.82;;;14.70;99.90;;;;;;4953951;28;37913;-85
2022/10/27 04:46:36;;;;;;;12.27;5.10;;;14.70;99.90;;;;;;4948703;28;39170;-85
2022/10/27 04:49:03;;;;;;;13.20;4.85;;;14.70;99.90;;;;;;4961664;28;37332;-85
2022/10/27 04:51:29;;;;;;;9.25;4.18;;;14.60;99.90;;;;;;4950284;28;36972;-87
2022/10/27 04:53:55;;;;;;;13.02;5.95;;;14.70;99.90;;;;;;4956075;28;40288;-87
2022/10/27 04:56:21;;;;;;;11.70;4.57;;;14.70;99.90;;;;;;4970264;28;39471;-86
2022/10/27 04:58:47;;;;;;;10.90;3.90;;;14.70;99.90;;;;;;4957998;28;37261;-89
2022/10/27 05:01:14;;;;;;;6.88;3.50;;;14.70;99.90;;;;;;4966590;28;37956;-87
2022/10/27 05:03:40;;;;;;;8.02;4.30;;;14.70;99.90;;;;;;4942721;28;39144;-87
2022/10/27 05:06:06;;;;;;;11.82;3.70;;;14.60;99.90;;;;;;4942487;28;39008;-86
2022/10/27 05:08:33;;;;;;;6.97;3.60;;;14.70;99.90;;;;;;4946577;28;39118;-87
2022/10/27 05:10:59;;;;;;;12.52;4.05;;;14.60;99.90;;;;;;4945295;28;35925;-87
2022/10/27 05:13:26;;;;;;;7.68;3.60;;;14.60;99.90;;;;;;4952689;28;37532;-88
2022/10/27 05:15:52;;;;;;;6.13;3.28;;;14.60;99.90;;;;;;4964066;28;38900;-87
2022/10/27 05:18:18;;;;;;;10.80;4.25;;;14.50;99.90;;;;;;4937545;28;39278;-90
2022/10/27 05:20:44;;;;;;;7.13;3.58;;;14.50;99.90;;;;;;4949360;28;36074;-85
2022/10/27 05:23:11;;;;;;;11.48;3.42;;;14.50;99.90;;;;;;4948074;28;40200;-87
2022/10/27 05:25:37;;;;;;;7.68;3.63;;;14.40;99.90;;;;;;4965143;28;39805;-86
2022/10/27 05:28:08;;;;;;;14.50;3.15;;;14.40;99.90;;;;;;4956973;28;36951;-90
2022/10/27 05:30:34;;;;;;;8.45;3.72;;;14.30;99.90;;;;;;4940365;28;36569;-87
2022/10/27 05:33:01;;;;;;;10.43;4.65;;;14.30;99.90;;;;;;4937881;28;40383;-87
2022/10/27 05:35:27;;;;;;;10.80;3.90;;;14.30;99.90;;;;;;4955514;28;38854;-88
2022/10/27 05:37:53;;;;;;;7.47;3.80;;;14.40;99.90;;;;;;4933462;28;39004;-87
2022/10/27 05:40:19;;;;;;;9.35;3.90;;;14.40;99.90;;;;;;4964418;28;35573;-88
2022/10/27 05:42:55;;;;;;;5.97;3.50;;;14.40;99.90;;;;;;4938135;28;40140;-85
2022/10/27 05:45:23;;;;;;;10.00;3.60;;;14.40;99.90;;;;;;4949258;28;39077;-84
2022/10/27 05:47:56;;;;;;;9.25;4.53;;;14.40;99.90;;;;;;4942248;28;39926;-84
2022/10/27 05:50:22;;;;;;;6.20;3.25;;;14.40;99.90;;;;;;4931392;28;36213;-85
2022/10/27 05:52:48;;;;;;;8.13;3.42;;;14.40;99.90;;;;;;4936842;28;37437;-84
2022/10/27 05:55:14;;;;;;;7.45;3.08;;;14.40;99.90;;;;;;4952945;28;39590;-81
2022/10/27 05:57:40;;;;;;;14.43;3.65;;;14.40;99.90;;;;;;4951029;28;37221;-84
2022/10/27 06:00:07;;;;;;;6.88;3.25;;;14.40;99.90;;;;;;4949721;28;35938;-80
2022/10/27 06:02:33;;;;;;;6.53;3.10;;;14.40;99.90;;;;;;4948537;28;37883;-80
2022/10/27 06:04:59;;;;;;;10.25;3.88;;;14.30;99.90;;;;;;4948407;28;37768;-80
2022/10/27 06:07:25;;;;;;;7.75;3.97;;;14.30;99.90;;;;;;4948400;28;38901;-83
2022/10/27 06:09:51;;;;;;;9.20;4.18;;;14.10;99.90;;;;;;4945512;28;34574;-83
2022/10/27 06:12:18;;;;;;;9.88;3.85;;;14.10;99.90;;;;;;4962803;28;38699;-84
2022/10/27 06:14:44;;;;;;;8.05;4.00;;;14.00;99.90;;;;;;4951843;28;37631;-86
2022/10/27 06:17:10;;;;;;;9.55;4.47;;;13.90;99.90;;;;;;4945335;28;40041;-85
2022/10/27 06:19:37;;;;;;;15.23;4.43;;;13.90;99.90;;;;;;4951388;28;36079;-85
2022/10/27 06:22:03;;;;;;;9.00;3.90;;;13.80;99.90;;;;;;4951688;28;37258;-87
2022/10/27 06:24:29;;;;;;;13.32;4.32;;;13.80;99.90;;;;;;4953443;28;38103;-87
2022/10/27 06:26:55;;;;;;;10.05;4.45;;;13.70;99.90;;;;;;4965265;28;38403;-85
2022/10/27 06:29:21;;;;;;;8.48;4.43;;;13.70;99.90;;;;;;4944680;28;37467;-87
2022/10/27 06:31:47;;;;;;;14.02;4.40;;;13.60;99.90;;;;;;4952657;28;38785;-88
2022/10/27 06:34:14;;;;;;;10.60;4.80;;;13.50;99.90;;;;;;4948917;28;38967;-84
2022/10/27 06:36:40;;;;;;;11.80;4.70;;;13.50;99.90;;;;;;4961245;28;39171;-87
2022/10/27 06:39:06;;;;;;;13.23;5.57;;;13.40;99.90;;;;;;4956205;28;37089;-85
2022/10/27 06:41:35;;;;;;;9.63;4.78;;;13.40;99.90;;;;;;4947057;28;38131;-85
2022/10/27 06:44:01;;;;;;;10.32;4.97;;;13.40;99.90;;;;;;4952064;28;36738;-85
2022/10/27 06:46:27;;;;;;;14.32;6.63;;;13.30;99.90;;;;;;4957608;28;46941;-86
2022/10/27 06:48:54;;;;;;;16.75;6.40;;;13.40;99.90;;;;;;4956739;28;36257;-87
2022/10/27 06:51:20;;;;;;;11.57;5.60;;;13.30;99.90;;;;;;4944314;28;38203;-87
2022/10/27 06:53:46;;;;;;;10.27;5.50;;;13.40;99.90;;;;;;4946881;28;39057;-84
2022/10/27 06:56:12;;;;;;;13.52;6.32;;;13.30;99.90;;;;;;4948959;28;38560;-89
2022/10/27 06:58:39;;;;;;;11.02;6.65;;;13.30;99.90;;;;;;4946945;28;35999;-83
2022/10/27 07:01:05;;;;;;;12.23;6.10;;;13.40;99.90;;;;;;4946394;28;37698;-83
2022/10/27 07:03:34;;;;;;;11.40;6.53;;;13.30;99.90;;;;;;4972180;28;49024;-85
2022/10/27 07:06:00;;;;;;;8.48;5.55;;;13.30;99.90;;;;;;4964052;28;37595;-84
2022/10/27 07:08:26;;;;;;;12.02;5.72;;;13.30;99.90;;;;;;4966411;28;36113;-84
2022/10/27 07:10:53;;;;;;;12.90;6.10;;;13.30;99.90;;;;;;4966686;28;37812;-86
2022/10/27 07:13:19;;;;;;;12.68;6.40;;;13.30;99.90;;;;;;4978801;28;39971;-84
2022/10/27 07:15:45;;;;;;;15.45;7.18;;;13.30;99.90;;;;;;4946540;28;39372;-83
2022/10/27 07:18:11;;;;;;;14.13;5.68;;;13.30;99.90;;;;;;4973949;28;37266;-85
2022/10/27 07:20:38;;;;;;;11.63;5.82;;;13.30;99.90;;;;;;4956610;28;39119;-82
2022/10/27 07:23:06;;;;;;;11.95;5.50;;;13.30;99.90;;;;;;4972006;28;39106;-83
2022/10/27 07:25:33;;;;;;;12.50;4.80;;;13.40;99.90;;;;;;4955093;28;37302;-80
2022/10/27 07:28:01;;;;;;;10.52;5.10;;;13.50;99.90;;;;;;4973803;28;36919;-82
2022/10/27 07:30:31;;;;;;;6.55;3.95;;;13.60;99.90;;;;;;4954807;28;39330;-84
2022/10/27 07:32:57;;;;;;;7.43;3.85;;;13.70;99.90;;;;;;4953529;28;37671;-83
2022/10/27 07:35:24;;;;;;;8.02;3.60;;;13.80;99.90;;;;;;4969158;28;36908;-82
2022/10/27 07:37:51;;;;;;;11.50;3.97;;;14.00;99.90;;;;;;4956838;28;36114;-83
2022/10/27 07:40:20;;;;;;;6.40;2.95;;;14.10;99.90;;;;;;4957601;28;37750;-84
2022/10/27 07:42:55;;;;;;;8.55;3.65;;;14.40;99.90;;;;;;4954551;28;37757;-84
2022/10/27 07:45:23;;;;;;;7.07;3.25;;;14.40;99.90;;;;;;4954315;28;39076;-85
2022/10/27 07:47:51;;;;;;;10.45;2.63;;;14.50;99.90;;;;;;4980124;28;37463;-84
2022/10/27 07:50:20;;;;;;;8.10;2.92;;;14.60;99.90;;;;;;4962099;28;38869;-84
2022/10/27 07:52:51;;;;;;;6.60;2.63;;;14.70;99.90;;;;;;4979344;28;38077;-84
2022/10/27 07:55:20;;;;;;;5.75;2.50;;;14.90;99.90;;;;;;4977005;28;37813;-82
2022/10/27 07:57:46;;;;;;;8.02;2.30;;;15.10;99.90;;;;;;4960009;28;37162;-82
2022/10/27 08:00:15;;;;;;;5.45;1.95;;;15.20;99.90;;;;;;4977703;28;38554;-84
2022/10/27 08:02:42;;;;;;;4.90;1.80;;;15.30;99.90;;;;;;4960094;28;38791;-81
2022/10/27 08:05:09;;;;;;;5.15;1.63;;;15.40;99.90;;;;;;4977932;28;39991;-82
2022/10/27 08:07:36;;;;;;;7.03;1.98;;;15.50;99.90;;;;;;4962632;28;37473;-80
2022/10/27 08:10:02;;;;;;;4.15;1.60;;;15.60;99.90;;;;;;4973137;28;38713;-91
2022/10/27 08:12:28;;;;;;;4.25;1.77;;;15.80;99.90;;;;;;4954089;28;37984;-85
2022/10/27 08:14:54;;;;;;;4.78;1.92;;;15.90;99.90;;;;;;4957447;28;37216;-82
2022/10/27 08:17:20;;;;;;;4.88;1.67;;;16.00;99.90;;;;;;4974862;28;37886;-79
2022/10/27 08:19:47;;;;;;;3.97;1.50;;;16.00;99.90;;;;;;4960141;28;38232;-77
2022/10/27 08:22:13;;;;;;;6.53;1.30;;;16.10;99.90;;;;;;4957126;28;38745;-80
2022/10/27 08:24:40;;;;;;;4.47;1.48;;;16.30;99.90;;;;;;4967500;28;38855;-81
2022/10/27 08:27:06;;;;;;;5.63;1.48;;;16.40;99.90;;;;;;4954792;28;36087;-78
2022/10/27 08:29:32;;;;;;;3.25;1.35;;;16.50;99.90;;;;;;4952637;28;38850;-86
2022/10/27 08:31:58;;;;;;;2.83;1.08;;;16.60;99.90;;;;;;4969700;28;37248;-83
2022/10/27 08:34:24;;;;;;;5.47;1.30;;;16.60;99.90;;;;;;4972087;28;39231;-80
2022/10/27 08:36:50;;;;;;;6.72;1.10;;;16.50;99.90;;;;;;4971724;28;38090;-84
2022/10/27 08:39:16;;;;;;;13.23;2.25;;;16.60;99.90;;;;;;4977972;28;37905;-87
2022/10/27 08:41:51;;;;;;;2.85;1.10;;;16.60;99.90;;;;;;4967044;28;40239;-94
2022/10/27 08:44:35;;;;;;;4.30;1.33;;;16.70;99.90;;;;;;4977417;28;39014;-78
2022/10/27 08:47:13;;;;;;;2.88;0.95;;;16.80;99.90;;;;;;4969569;28;36280;-86
2022/10/27 08:49:41;;;;;;;4.28;1.20;;;16.80;99.90;;;;;;4963378;28;47667;-85
2022/10/27 08:52:28;;;;;;;2.63;1.10;;;16.90;99.90;;;;;;4977087;28;40026;-91
2022/10/27 08:55:01;;;;;;;2.55;0.95;;;17.00;99.90;;;;;;4963968;28;38963;-86
2022/10/27 08:57:32;;;;;;;5.07;1.00;;;17.10;99.90;;;;;;4970710;28;39265;-90
2022/10/27 08:59:58;;;;;;;4.50;1.08;;;17.20;99.90;;;;;;4971479;28;38052;-84
2022/10/27 09:02:46;;;;;;;3.80;1.10;;;17.20;99.90;;;;;;4985500;28;39854;-87
2022/10/27 09:05:24;;;;;;;3.60;1.02;;;17.20;99.90;;;;;;4983441;28;37682;-83
2022/10/27 09:08:04;;;;;;;2.45;0.88;;;17.20;99.90;;;;;;4969684;28;38561;-92
2022/10/27 09:10:39;;;;;;;4.28;0.88;;;17.10;99.90;;;;;;4979233;28;47071;-86
2022/10/27 09:13:46;;;;;;;1.98;0.60;;;17.20;99.90;;;;;;4986603;28;39546;-84
2022/10/27 09:16:19;;;;;;;8.43;0.75;;;17.30;99.90;;;;;;4968088;28;37794;-88
2022/10/27 09:18:48;;;;;;;5.15;1.27;;;17.30;99.90;;;;;;4980298;28;37365;-83
2022/10/27 09:21:22;;;;;;;6.47;1.60;;;17.40;99.90;;;;;;4971531;28;39565;-84
2022/10/27 09:23:51;;;;;;;2.20;1.00;;;17.50;99.90;;;;;;4973245;28;37845;-84
2022/10/27 09:26:21;;;;;;;4.72;1.45;;;17.60;99.90;;;;;;4981367;28;37512;-85
2022/10/27 09:28:51;;;;;;;2.15;1.08;;;17.70;99.90;;;;;;4972621;28;37750;-83
2022/10/27 09:31:37;;;;;;;5.60;1.13;;;17.70;99.90;;;;;;4969281;28;38544;-88
2022/10/27 09:34:13;;;;;;;4.68;0.90;;;17.80;99.90;;;;;;4979837;28;37997;-84
2022/10/27 09:36:39;;;;;;;3.83;0.90;;;17.80;99.90;;;;;;4986769;28;38147;-78
2022/10/27 09:39:06;;;;;;;4.28;1.17;;;17.80;99.90;;;;;;4971586;28;36747;-87
2022/10/27 09:41:33;;;;;;;3.17;0.85;;;17.90;99.90;;;;;;4971108;28;38093;-87
2022/10/27 09:43:59;;;;;;;6.03;1.13;;;17.80;99.90;;;;;;4971398;28;37864;-89
2022/10/27 09:46:28;;;;;;;10.25;1.70;;;17.80;99.90;;;;;;4966624;28;37836;-85
2022/10/27 09:49:05;;;;;;;2.97;1.13;;;17.80;99.90;;;;;;4984660;28;37469;-85
2022/10/27 09:51:45;;;;;;;2.47;0.85;;;17.80;99.90;;;;;;4970399;28;47304;-84
2022/10/27 09:54:35;;;;;;;2.53;1.15;;;17.90;99.90;;;;;;4977373;28;40114;-85
2022/10/27 09:57:11;;;;;;;5.30;0.90;;;17.90;99.90;;;;;;4984905;28;39081;-85
2022/10/27 09:59:39;;;;;;;2.55;1.00;;;17.90;99.90;;;;;;4966373;28;47415;-86
2022/10/27 10:02:22;;;;;;;4.03;1.27;;;17.90;99.90;;;;;;4979894;28;38912;-87
2022/10/27 10:04:49;;;;;;;7.95;1.13;;;18.00;99.90;;;;;;4970794;28;38880;-87
2022/10/27 10:07:30;;;;;;;7.13;1.00;;;17.90;99.90;;;;;;4963153;28;38443;-85
2022/10/27 10:10:31;;;;;;;2.97;1.13;;;17.90;99.90;;;;;;4978661;28;37975;-85
2022/10/27 10:13:03;;;;;;;4.75;1.40;;;18.00;99.90;;;;;;4965828;28;47097;-84
2022/10/27 10:15:31;;;;;;;3.50;1.02;;;18.00;99.90;;;;;;4959951;28;47657;-84
2022/10/27 10:18:00;;;;;;;3.28;1.20;;;18.00;99.90;;;;;;4980421;28;38121;-85
2022/10/27 10:20:38;;;;;;;5.35;1.35;;;18.10;99.90;;;;;;4981135;28;37710;-84
2022/10/27 10:23:21;;;;;;;5.10;1.48;;;18.10;99.90;;;;;;4980371;28;38902;-84
2022/10/27 10:25:49;;;;;;;2.83;1.35;;;18.10;99.90;;;;;;4982043;28;38987;-85
2022/10/27 10:28:36;;;;;;;3.72;1.17;;;18.10;99.90;;;;;;4969341;28;38831;-87
2022/10/27 10:31:06;;;;;;;3.30;1.65;;;18.10;99.90;;;;;;4967439;28;36849;-88
2022/10/27 10:33:38;;;;;;;2.60;1.23;;;18.20;99.90;;;;;;4966293;28;47112;-84
2022/10/27 10:36:28;;;;;;;9.93;2.60;;;18.20;99.90;;;;;;4958070;28;38696;-91
2022/10/27 10:38:58;;;;;;;5.95;2.03;;;18.30;99.90;;;;;;4962019;28;47057;-87
2022/10/27 10:41:28;;;;;;;3.95;1.40;;;18.40;99.90;;;;;;4984358;28;36827;-94
2022/10/27 10:44:15;;;;;;;2.28;1.10;;;18.50;99.90;;;;;;4963666;28;38234;-85
2022/10/27 10:46:52;;;;;;;3.30;1.45;;;18.50;99.90;;;;;;4969411;28;47050;-85
2022/10/27 10:49:31;;;;;;;7.18;1.80;;;18.50;99.90;;;;;;4968230;28;37416;-83
2022/10/27 10:52:00;;;;;;;6.07;1.52;;;18.40;99.90;;;;;;4969253;28;36247;-85
2022/10/27 10:54:35;;;;;;;3.97;1.42;;;18.30;99.90;;;;;;4970489;28;40504;-87
2022/10/27 10:57:02;;;;;;;6.38;1.33;;;18.20;99.90;;;;;;4981535;28;38582;-84
2022/10/27 10:59:34;;;;;;;5.50;1.50;;;18.20;99.90;;;;;;4983778;28;49058;-85
2022/10/27 11:02:12;;;;;;;7.57;1.60;;;18.30;99.90;;;;;;4966680;28;36269;-85
2022/10/27 11:04:43;;;;;;;5.53;1.38;;;18.20;99.90;;;;;;4968954;28;48358;-87
2022/10/27 11:07:31;;;;;;;6.75;1.25;;;18.30;99.90;;;;;;4953764;28;38177;-87
2022/10/27 11:10:17;;;;;;;5.45;1.85;;;18.20;99.90;;;;;;4972879;28;39752;-86
2022/10/27 11:12:50;;;;;;;3.55;1.60;;;18.20;99.90;;;;;;4969483;28;48832;-87
2022/10/27 11:15:23;;;;;;;7.25;1.70;;;18.20;99.90;;;;;;4969056;28;39276;-88
2022/10/27 11:17:54;;;;;;;6.10;1.67;;;18.10;99.90;;;;;;4954887;28;39200;-84
2022/10/27 11:20:31;;;;;;;4.07;1.35;;;18.20;99.90;;;;;;4977216;28;38061;-88
2022/10/27 11:22:59;;;;;;;4.25;1.58;;;18.10;99.90;;;;;;4967455;28;37359;-90
2022/10/27 11:25:29;;;;;;;5.53;1.55;;;18.10;99.90;;;;;;4987290;28;37829;-87
2022/10/27 11:28:04;;;;;;;6.25;1.90;;;18.20;99.90;;;;;;4970954;28;39099;-87
2022/10/27 11:30:34;;;;;;;5.88;1.70;;;18.20;99.90;;;;;;4986841;28;48035;-90
2022/10/27 11:33:15;;;;;;;5.38;1.58;;;18.40;99.90;;;;;;4973877;28;36193;-90
2022/10/27 11:36:06;;;;;;;9.13;1.98;;;18.50;99.90;;;;;;4985306;28;48233;-88
2022/10/27 11:38:36;;;;;;;5.25;1.60;;;18.60;99.90;;;;;;4974237;28;47196;-89
2022/10/27 11:41:32;;;;;;;4.75;1.90;;;18.60;99.90;;;;;;4995927;28;37789;-85
2022/10/27 11:44:14;;;;;;;4.40;1.88;;;18.60;99.90;;;;;;4988214;28;48116;-85
2022/10/27 11:46:59;;;;;;;5.72;2.10;;;18.70;99.90;;;;;;4985594;28;47793;-87
2022/10/27 11:49:44;;;;;;;6.78;1.70;;;18.60;99.90;;;;;;4993784;28;38716;-89
2022/10/27 11:52:41;;;;;;;5.72;1.75;;;18.70;99.90;;;;;;4997254;28;38424;-88
2022/10/27 11:55:10;;;;;;;4.13;1.70;;;18.80;99.90;;;;;;5007504;28;38147;-87
2022/10/27 11:58:09;;;;;;;6.28;1.65;;;18.80;99.90;;;;;;5007338;28;38945;-88
2022/10/27 12:01:07;;;;;;;5.97;1.75;;;18.80;99.90;;;;;;4990526;28;48055;-88
2022/10/27 12:04:07;;;;;;;7.78;1.80;;;18.70;99.90;;;;;;4971689;28;46874;-90
2022/10/27 12:06:51;;;;;;;6.57;1.80;;;18.70;99.90;;;;;;4979790;28;48946;-90
2022/10/27 12:09:52;;;;;;;7.18;1.70;;;18.80;99.90;;;;;;4989636;28;37825;-88
2022/10/27 12:12:42;;;;;;;5.28;1.48;;;18.70;99.90;;;;;;4980835;28;37484;-88
2022/10/27 12:15:08;;;;;;;4.88;1.83;;;18.80;99.90;;;;;;4998280;28;38271;-88
2022/10/27 12:17:56;;;;;;;8.50;1.77;;;19.00;99.90;;;;;;4981851;28;36129;-87
2022/10/27 12:20:35;;;;;;;7.75;1.98;;;19.10;99.90;;;;;;4986613;28;39125;-89
2022/10/27 12:23:13;;;;;;;7.68;2.28;;;19.20;99.90;;;;;;4976400;28;38749;-87
2022/10/27 12:25:48;;;;;;;9.43;2.13;;;19.20;99.90;;;;;;4971502;28;47480;-93
2022/10/27 12:28:15;;;;;;;4.50;1.88;;;19.20;99.90;;;;;;4970638;28;36079;-88
2022/10/27 12:30:45;;;;;;;8.10;2.30;;;19.20;99.90;;;;;;4981698;28;38025;-86
2022/10/27 12:33:27;;;;;;;6.30;1.73;;;19.20;99.90;;;;;;4968035;28;37950;-87
2022/10/27 12:36:00;;;;;;;6.70;2.00;;;19.20;99.90;;;;;;4981777;28;38285;-88
2022/10/27 12:38:39;;;;;;;6.30;1.83;;;19.30;99.90;;;;;;4973599;28;36201;-93
2022/10/27 12:41:30;;;;;;;5.30;1.95;;;19.30;99.90;;;;;;4975817;28;40139;-90
2022/10/27 12:44:31;;;;;;;4.55;1.83;;;19.30;99.90;;;;;;4986698;28;47073;-90
2022/10/27 12:47:18;;;;;;;9.70;2.03;;;19.40;99.90;;;;;;4970905;28;47194;-89
2022/10/27 12:49:51;;;;;;;5.30;2.10;;;19.50;99.90;;;;;;4988676;28;47697;-89
2022/10/27 12:52:22;;;;;;;;;;;19.40;99.90;;;;;;4966782;28;38777;-90
2022/10/27 12:54:51;;;;;;;5.45;2.00;;;19.50;99.90;;;;;;4974327;28;39690;-89
2022/10/27 12:57:32;;;;;;;9.43;2.25;;;19.50;99.90;;;;;;4972655;28;37561;-92
2022/10/27 13:00:01;;;;;;;6.85;1.98;;;19.60;99.90;;;;;;4975781;28;36570;-92
2022/10/27 13:02:52;;;;;;;5.30;1.95;;;19.50;99.90;;;;;;4989953;28;38801;-92
2022/10/27 13:05:38;;;;;;;8.43;3.00;;;19.60;99.90;;;;;;4976125;28;38667;-92
2022/10/27 13:08:44;;;;;;;6.45;2.00;;;19.70;99.90;;;;;;4995133;28;38625;-89